sensor_id;sensor_type;location;lat;lon;timestamp;pressure;altitude;pressure_sealevel;temperature;humidity
4022;BME280;2025;48.260;16.432;2024-03-02T00:01:40;99063.59;;;3.90;100.00
4022;BME280;2025;48.260;16.432;2024-03-02T00:04:07;99069.78;;;3.79;100.00
4022;BME280;2025;48.260;16.432;2024-03-02T00:06:35;99076.81;;;3.69;100.00
4022;BME280;2025;48.260;16.432;2024-03-02T00:09:03;99074.50;;;3.66;100.00
4022;BME280;2025;48.260;16.432;2024-03-02T00:11:34;99072.72;;;3.67;100.00
4022;BME280;2025;48.260;16.432;2024-03-02T00:14:01;99074.78;;;3.63;100.00
4022;BME280;2025;48.260;16.432;2024-03-02T00:16:30;99071.25;;;3.45;100.00
4022;BME280;2025;48.260;16.432;2024-03-02T00:19:01;99067.28;;;3.50;100.00
4022;BME280;2025;48.260;16.432;2024-03-02T00:21:29;99068.41;;;3.38;100.00
4022;BME280;2025;48.260;16.432;2024-03-02T00:23:58;99068.03;;;3.80;100.00
4022;BME280;2025;48.260;16.432;2024-03-02T00:26:25;99066.06;;;3.35;100.00
4022;BME280;2025;48.260;16.432;2024-03-02T00:28:55;99068.94;;;3.42;100.00
4022;BME280;2025;48.260;16.432;2024-03-02T00:31:23;99068.81;;;3.43;100.00
4022;BME280;2025;48.260;16.432;2024-03-02T00:33:50;99067.16;;;3.42;100.00
4022;BME280;2025;48.260;16.432;2024-03-02T00:36:22;99064.88;;;3.20;100.00
4022;BME280;2025;48.260;16.432;2024-03-02T00:38:52;99062.75;;;3.52;100.00
4022;BME280;2025;48.260;16.432;2024-03-02T00:41:21;99061.13;;;3.42;100.00
4022;BME280;2025;48.260;16.432;2024-03-02T00:43:59;99065.53;;;3.12;100.00
4022;BME280;2025;48.260;16.432;2024-03-02T00:46:28;99060.63;;;2.80;100.00
4022;BME280;2025;48.260;16.432;2024-03-02T00:48:57;99062.53;;;2.68;100.00
4022;BME280;2025;48.260;16.432;2024-03-02T00:51:26;99059.78;;;2.60;100.00
4022;BME280;2025;48.260;16.432;2024-03-02T00:53:55;99065.81;;;2.50;100.00
4022;BME280;2025;48.260;16.432;2024-03-02T00:56:23;99060.09;;;2.66;100.00
4022;BME280;2025;48.260;16.432;2024-03-02T00:58:51;99053.38;;;2.83;100.00
4022;BME280;2025;48.260;16.432;2024-03-02T01:01:19;99056.13;;;2.91;100.00
4022;BME280;2025;48.260;16.432;2024-03-02T01:03:46;99048.47;;;2.80;100.00
4022;BME280;2025;48.260;16.432;2024-03-02T01:06:14;99055.56;;;2.68;100.00
4022;BME280;2025;48.260;16.432;2024-03-02T01:08:41;99052.41;;;2.65;100.00
4022;BME280;2025;48.260;16.432;2024-03-02T01:11:09;99052.28;;;2.76;100.00
4022;BME280;2025;48.260;16.432;2024-03-02T01:13:36;99063.09;;;2.71;100.00
4022;BME280;2025;48.260;16.432;2024-03-02T01:16:03;99057.47;;;2.66;100.00
4022;BME280;2025;48.260;16.432;2024-03-02T01:18:32;99067.31;;;2.63;100.00
4022;BME280;2025;48.260;16.432;2024-03-02T01:20:59;99062.41;;;2.89;100.00
4022;BME280;2025;48.260;16.432;2024-03-02T01:23:27;99056.25;;;2.80;100.00
4022;BME280;2025;48.260;16.432;2024-03-02T01:25:54;99057.59;;;2.74;100.00
4022;BME280;2025;48.260;16.432;2024-03-02T01:28:21;99053.22;;;2.75;100.00
4022;BME280;2025;48.260;16.432;2024-03-02T01:30:48;99067.19;;;2.74;100.00
4022;BME280;2025;48.260;16.432;2024-03-02T01:33:16;99059.69;;;2.71;100.00
4022;BME280;2025;48.260;16.432;2024-03-02T01:35:44;99066.09;;;2.77;100.00
4022;BME280;2025;48.260;16.432;2024-03-02T01:38:11;99057.47;;;2.76;100.00
4022;BME280;2025;48.260;16.432;2024-03-02T01:40:39;99062.81;;;2.84;100.00
4022;BME280;2025;48.260;16.432;2024-03-02T01:43:06;99061.19;;;2.93;100.00
4022;BME280;2025;48.260;16.432;2024-03-02T01:45:34;99054.88;;;2.86;100.00
4022;BME280;2025;48.260;16.432;2024-03-02T01:48:03;99051.75;;;2.92;100.00
4022;BME280;2025;48.260;16.432;2024-03-02T01:50:32;99054.59;;;3.08;100.00
4022;BME280;2025;48.260;16.432;2024-03-02T01:53:01;99050.25;;;2.89;100.00
4022;BME280;2025;48.260;16.432;2024-03-02T01:55:28;99047.19;;;2.84;100.00
4022;BME280;2025;48.260;16.432;2024-03-02T01:57:56;99050.38;;;2.88;100.00
4022;BME280;2025;48.260;16.432;2024-03-02T02:00:23;99047.63;;;2.89;100.00
4022;BME280;2025;48.260;16.432;2024-03-02T02:02:52;99039.81;;;2.80;100.00
4022;BME280;2025;48.260;16.432;2024-03-02T02:05:19;99038.88;;;2.71;100.00
4022;BME280;2025;48.260;16.432;2024-03-02T02:07:46;99039.28;;;2.76;100.00
4022;BME280;2025;48.260;16.432;2024-03-02T02:10:15;99040.66;;;2.90;100.00
4022;BME280;2025;48.260;16.432;2024-03-02T02:12:42;99038.31;;;2.77;100.00
4022;BME280;2025;48.260;16.432;2024-03-02T02:15:25;99033.81;;;2.69;100.00
4022;BME280;2025;48.260;16.432;2024-03-02T02:17:52;99035.59;;;2.49;100.00
4022;BME280;2025;48.260;16.432;2024-03-02T02:20:19;99038.13;;;2.40;100.00
4022;BME280;2025;48.260;16.432;2024-03-02T02:22:58;99030.50;;;2.58;100.00
4022;BME280;2025;48.260;16.432;2024-03-02T02:25:25;99026.41;;;2.55;100.00
4022;BME280;2025;48.260;16.432;2024-03-02T02:27:53;99028.59;;;2.60;100.00
4022;BME280;2025;48.260;16.432;2024-03-02T02:30:21;99022.19;;;2.64;100.00
4022;BME280;2025;48.260;16.432;2024-03-02T02:32:48;99018.47;;;2.66;100.00
4022;BME280;2025;48.260;16.432;2024-03-02T02:35:15;99019.31;;;2.57;100.00
4022;BME280;2025;48.260;16.432;2024-03-02T02:37:43;99008.91;;;2.47;100.00
4022;BME280;2025;48.260;16.432;2024-03-02T02:40:13;99012.88;;;2.71;100.00
4022;BME280;2025;48.260;16.432;2024-03-02T02:42:40;99010.38;;;2.89;100.00
4022;BME280;2025;48.260;16.432;2024-03-02T02:45:08;99013.25;;;3.05;100.00
4022;BME280;2025;48.260;16.432;2024-03-02T02:47:36;99018.19;;;2.99;100.00
4022;BME280;2025;48.260;16.432;2024-03-02T02:50:04;99028.72;;;2.97;100.00
4022;BME280;2025;48.260;16.432;2024-03-02T02:52:32;99018.06;;;2.90;100.00
4022;BME280;2025;48.260;16.432;2024-03-02T02:55:03;99015.03;;;2.95;100.00
4022;BME280;2025;48.260;16.432;2024-03-02T02:57:31;99017.22;;;3.00;100.00
4022;BME280;2025;48.260;16.432;2024-03-02T03:00:02;99009.56;;;2.98;100.00
4022;BME280;2025;48.260;16.432;2024-03-02T03:02:36;99010.13;;;2.72;100.00
4022;BME280;2025;48.260;16.432;2024-03-02T03:05:04;99012.19;;;2.79;100.00
4022;BME280;2025;48.260;16.432;2024-03-02T03:07:31;99012.31;;;2.77;100.00
4022;BME280;2025;48.260;16.432;2024-03-02T03:09:58;99006.16;;;2.88;100.00
4022;BME280;2025;48.260;16.432;2024-03-02T03:12:26;99015.84;;;3.15;100.00
4022;BME280;2025;48.260;16.432;2024-03-02T03:14:54;99012.03;;;3.00;100.00
4022;BME280;2025;48.260;16.432;2024-03-02T03:17:22;99016.81;;;2.65;100.00
4022;BME280;2025;48.260;16.432;2024-03-02T03:19:49;99023.13;;;2.72;100.00
4022;BME280;2025;48.260;16.432;2024-03-02T03:22:16;99030.09;;;2.72;100.00
4022;BME280;2025;48.260;16.432;2024-03-02T03:24:43;99026.28;;;2.76;100.00
4022;BME280;2025;48.260;16.432;2024-03-02T03:27:10;99026.00;;;2.79;100.00
4022;BME280;2025;48.260;16.432;2024-03-02T03:29:37;99025.75;;;2.82;100.00
4022;BME280;2025;48.260;16.432;2024-03-02T03:32:07;99029.69;;;2.86;100.00
4022;BME280;2025;48.260;16.432;2024-03-02T03:34:34;99026.84;;;2.89;100.00
4022;BME280;2025;48.260;16.432;2024-03-02T03:37:01;99028.19;;;2.84;100.00
4022;BME280;2025;48.260;16.432;2024-03-02T03:39:28;99020.94;;;2.87;100.00
4022;BME280;2025;48.260;16.432;2024-03-02T03:41:55;99022.88;;;2.66;100.00
4022;BME280;2025;48.260;16.432;2024-03-02T03:44:22;99024.34;;;2.49;100.00
4022;BME280;2025;48.260;16.432;2024-03-02T03:46:49;99021.03;;;2.37;100.00
4022;BME280;2025;48.260;16.432;2024-03-02T03:49:18;99032.53;;;2.35;100.00
4022;BME280;2025;48.260;16.432;2024-03-02T03:51:45;99028.31;;;2.53;100.00
4022;BME280;2025;48.260;16.432;2024-03-02T03:54:12;99037.59;;;2.36;100.00
4022;BME280;2025;48.260;16.432;2024-03-02T03:56:39;99035.81;;;2.37;100.00
4022;BME280;2025;48.260;16.432;2024-03-02T03:59:06;99039.63;;;2.23;100.00
4022;BME280;2025;48.260;16.432;2024-03-02T04:01:33;99036.47;;;2.19;100.00
4022;BME280;2025;48.260;16.432;2024-03-02T04:04:00;99041.22;;;2.14;100.00
4022;BME280;2025;48.260;16.432;2024-03-02T04:06:30;99034.81;;;2.18;100.00
4022;BME280;2025;48.260;16.432;2024-03-02T04:08:57;99041.38;;;2.13;100.00
4022;BME280;2025;48.260;16.432;2024-03-02T04:11:24;99031.72;;;2.34;100.00
4022;BME280;2025;48.260;16.432;2024-03-02T04:13:51;99028.72;;;2.29;100.00
4022;BME280;2025;48.260;16.432;2024-03-02T04:16:18;99030.63;;;2.27;100.00
4022;BME280;2025;48.260;16.432;2024-03-02T04:18:45;99037.53;;;2.17;100.00
4022;BME280;2025;48.260;16.432;2024-03-02T04:21:13;99039.59;;;2.13;100.00
4022;BME280;2025;48.260;16.432;2024-03-02T04:23:41;99047.81;;;2.18;100.00
4022;BME280;2025;48.260;16.432;2024-03-02T04:26:08;99050.28;;;2.20;100.00
4022;BME280;2025;48.260;16.432;2024-03-02T04:28:35;99055.00;;;2.45;100.00
4022;BME280;2025;48.260;16.432;2024-03-02T04:31:02;99048.47;;;2.80;100.00
4022;BME280;2025;48.260;16.432;2024-03-02T04:33:29;99047.63;;;3.09;100.00
4022;BME280;2025;48.260;16.432;2024-03-02T04:35:56;99047.19;;;3.23;100.00
4022;BME280;2025;48.260;16.432;2024-03-02T04:38:24;99051.69;;;3.31;100.00
4022;BME280;2025;48.260;16.432;2024-03-02T04:40:52;99057.31;;;3.26;100.00
4022;BME280;2025;48.260;16.432;2024-03-02T04:43:19;99051.44;;;3.34;100.00
4022;BME280;2025;48.260;16.432;2024-03-02T04:45:46;99057.56;;;3.33;100.00
4022;BME280;2025;48.260;16.432;2024-03-02T04:48:13;99070.88;;;3.30;100.00
4022;BME280;2025;48.260;16.432;2024-03-02T04:50:40;99068.53;;;3.36;100.00
4022;BME280;2025;48.260;16.432;2024-03-02T04:53:07;99067.72;;;3.36;100.00
4022;BME280;2025;48.260;16.432;2024-03-02T04:55:34;99077.31;;;3.26;100.00
4022;BME280;2025;48.260;16.432;2024-03-02T04:58:20;99070.31;;;3.26;100.00
4022;BME280;2025;48.260;16.432;2024-03-02T05:00:47;99073.16;;;3.52;100.00
4022;BME280;2025;48.260;16.432;2024-03-02T05:03:14;99069.63;;;3.44;100.00
4022;BME280;2025;48.260;16.432;2024-03-02T05:05:41;99080.72;;;3.46;100.00
4022;BME280;2025;48.260;16.432;2024-03-02T05:08:08;99081.13;;;3.51;100.00
4022;BME280;2025;48.260;16.432;2024-03-02T05:10:37;99087.81;;;3.53;100.00
4022;BME280;2025;48.260;16.432;2024-03-02T05:13:04;99082.59;;;3.53;100.00
4022;BME280;2025;48.260;16.432;2024-03-02T05:15:32;99095.88;;;3.70;100.00
4022;BME280;2025;48.260;16.432;2024-03-02T05:17:59;99094.75;;;3.72;100.00
4022;BME280;2025;48.260;16.432;2024-03-02T05:20:28;99095.69;;;3.81;100.00
4022;BME280;2025;48.260;16.432;2024-03-02T05:22:55;99098.88;;;3.65;100.00
4022;BME280;2025;48.260;16.432;2024-03-02T05:25:22;99099.72;;;3.66;100.00
4022;BME280;2025;48.260;16.432;2024-03-02T05:27:49;99101.19;;;3.68;100.00
4022;BME280;2025;48.260;16.432;2024-03-02T05:30:16;99103.94;;;3.76;100.00
4022;BME280;2025;48.260;16.432;2024-03-02T05:32:45;99098.19;;;3.73;100.00
4022;BME280;2025;48.260;16.432;2024-03-02T05:35:12;99103.25;;;3.74;100.00
4022;BME280;2025;48.260;16.432;2024-03-02T05:37:39;99101.72;;;3.82;100.00
4022;BME280;2025;48.260;16.432;2024-03-02T05:40:07;99097.09;;;3.75;100.00
4022;BME280;2025;48.260;16.432;2024-03-02T05:42:35;99101.72;;;3.82;100.00
4022;BME280;2025;48.260;16.432;2024-03-02T05:45:03;99102.53;;;3.82;100.00
4022;BME280;2025;48.260;16.432;2024-03-02T05:47:30;99099.94;;;3.92;100.00
4022;BME280;2025;48.260;16.432;2024-03-02T05:50:00;99096.63;;;3.90;100.00
4022;BME280;2025;48.260;16.432;2024-03-02T05:52:27;99107.50;;;3.85;100.00
4022;BME280;2025;48.260;16.432;2024-03-02T05:54:54;99100.34;;;3.87;100.00
4022;BME280;2025;48.260;16.432;2024-03-02T05:57:21;99105.56;;;3.87;100.00
4022;BME280;2025;48.260;16.432;2024-03-02T06:00:11;99108.00;;;3.89;100.00
4022;BME280;2025;48.260;16.432;2024-03-02T06:02:39;99126.91;;;3.91;100.00
4022;BME280;2025;48.260;16.432;2024-03-02T06:05:07;99121.16;;;3.97;100.00
4022;BME280;2025;48.260;16.432;2024-03-02T06:07:34;99127.19;;;3.97;100.00
4022;BME280;2025;48.260;16.432;2024-03-02T06:10:02;99135.69;;;3.99;100.00
4022;BME280;2025;48.260;16.432;2024-03-02T06:12:31;99125.78;;;4.03;100.00
4022;BME280;2025;48.260;16.432;2024-03-02T06:14:58;99123.72;;;4.07;100.00
4022;BME280;2025;48.260;16.432;2024-03-02T06:17:25;99122.47;;;4.11;100.00
4022;BME280;2025;48.260;16.432;2024-03-02T06:19:52;99124.78;;;4.14;100.00
4022;BME280;2025;48.260;16.432;2024-03-02T06:22:20;99126.16;;;4.18;100.00
4022;BME280;2025;48.260;16.432;2024-03-02T06:24:50;99117.91;;;4.22;100.00
4022;BME280;2025;48.260;16.432;2024-03-02T06:27:17;99125.28;;;4.27;100.00
4022;BME280;2025;48.260;16.432;2024-03-02T06:29:44;99124.63;;;4.25;100.00
4022;BME280;2025;48.260;16.432;2024-03-02T06:32:11;99119.41;;;4.25;100.00
4022;BME280;2025;48.260;16.432;2024-03-02T06:34:38;99117.09;;;4.22;100.00
4022;BME280;2025;48.260;16.432;2024-03-02T06:37:05;99125.28;;;4.27;100.00
4022;BME280;2025;48.260;16.432;2024-03-02T06:39:41;99125.69;;;4.32;100.00
4022;BME280;2025;48.260;16.432;2024-03-02T06:42:13;99138.41;;;4.35;100.00
4022;BME280;2025;48.260;16.432;2024-03-02T06:44:40;99126.16;;;4.46;100.00
4022;BME280;2025;48.260;16.432;2024-03-02T06:47:07;99130.53;;;4.45;100.00
4022;BME280;2025;48.260;16.432;2024-03-02T06:49:34;99124.25;;;4.48;100.00
4022;BME280;2025;48.260;16.432;2024-03-02T06:52:01;99129.53;;;4.56;100.00
4022;BME280;2025;48.260;16.432;2024-03-02T06:54:28;99127.16;;;4.62;100.00
4022;BME280;2025;48.260;16.432;2024-03-02T06:56:56;99135.75;;;4.73;100.00
4022;BME280;2025;48.260;16.432;2024-03-02T06:59:23;99144.72;;;4.88;100.00
4022;BME280;2025;48.260;16.432;2024-03-02T07:01:50;99145.84;;;5.03;100.00
4022;BME280;2025;48.260;16.432;2024-03-02T07:04:17;99142.72;;;5.00;100.00
4022;BME280;2025;48.260;16.432;2024-03-02T07:06:44;99140.03;;;5.10;100.00
4022;BME280;2025;48.260;16.432;2024-03-02T07:09:11;99138.63;;;5.15;100.00
4022;BME280;2025;48.260;16.432;2024-03-02T07:11:38;99135.50;;;5.12;100.00
4022;BME280;2025;48.260;16.432;2024-03-02T07:14:14;99141.06;;;5.17;100.00
4022;BME280;2025;48.260;16.432;2024-03-02T07:17:03;99130.94;;;5.14;100.00
4022;BME280;2025;48.260;16.432;2024-03-02T07:19:30;99124.50;;;5.26;100.00
4022;BME280;2025;48.260;16.432;2024-03-02T07:21:57;99129.13;;;5.32;100.00
4022;BME280;2025;48.260;16.432;2024-03-02T07:24:24;99117.63;;;5.43;100.00
4022;BME280;2025;48.260;16.432;2024-03-02T07:26:51;99130.00;;;5.59;100.00
4022;BME280;2025;48.260;16.432;2024-03-02T07:29:20;99132.47;;;5.60;100.00
4022;BME280;2025;48.260;16.432;2024-03-02T07:31:47;99140.41;;;5.77;100.00
4022;BME280;2025;48.260;16.432;2024-03-02T07:34:14;99139.34;;;5.87;100.00
4022;BME280;2025;48.260;16.432;2024-03-02T07:36:41;99145.50;;;5.78;100.00
4022;BME280;2025;48.260;16.432;2024-03-02T07:39:07;99149.88;;;5.96;100.00
4022;BME280;2025;48.260;16.432;2024-03-02T07:41:35;99154.16;;;6.05;100.00
4022;BME280;2025;48.260;16.432;2024-03-02T07:44:02;99151.56;;;6.05;100.00
4022;BME280;2025;48.260;16.432;2024-03-02T07:46:31;99156.19;;;6.11;100.00
4022;BME280;2025;48.260;16.432;2024-03-02T07:48:58;99159.13;;;6.16;100.00
4022;BME280;2025;48.260;16.432;2024-03-02T07:51:25;99165.50;;;6.14;100.00
4022;BME280;2025;48.260;16.432;2024-03-02T07:53:52;99158.34;;;6.24;100.00
4022;BME280;2025;48.260;16.432;2024-03-02T07:56:20;99158.47;;;6.14;100.00
4022;BME280;2025;48.260;16.432;2024-03-02T07:58:48;99160.63;;;6.19;100.00
4022;BME280;2025;48.260;16.432;2024-03-02T08:01:15;99158.16;;;6.17;100.00
4022;BME280;2025;48.260;16.432;2024-03-02T08:03:44;99163.00;;;6.04;100.00
4022;BME280;2025;48.260;16.432;2024-03-02T08:06:13;99158.72;;;6.03;100.00
4022;BME280;2025;48.260;16.432;2024-03-02T08:08:41;99167.25;;;6.05;100.00
4022;BME280;2025;48.260;16.432;2024-03-02T08:11:08;99166.09;;;6.07;100.00
4022;BME280;2025;48.260;16.432;2024-03-02T08:13:35;99167.56;;;6.02;100.00
4022;BME280;2025;48.260;16.432;2024-03-02T08:16:03;99168.38;;;6.02;100.00
4022;BME280;2025;48.260;16.432;2024-03-02T08:18:32;99173.53;;;6.20;100.00
4022;BME280;2025;48.260;16.432;2024-03-02T08:21:01;99171.06;;;6.19;100.00
4022;BME280;2025;48.260;16.432;2024-03-02T08:23:28;99167.78;;;6.17;100.00
4022;BME280;2025;48.260;16.432;2024-03-02T08:25:56;99159.16;;;6.24;100.00
4022;BME280;2025;48.260;16.432;2024-03-02T08:28:23;99161.16;;;6.30;100.00
4022;BME280;2025;48.260;16.432;2024-03-02T08:30:50;99153.31;;;6.30;100.00
4022;BME280;2025;48.260;16.432;2024-03-02T08:33:17;99152.38;;;6.40;100.00
4022;BME280;2025;48.260;16.432;2024-03-02T08:35:44;99158.16;;;6.51;100.00
4022;BME280;2025;48.260;16.432;2024-03-02T08:38:13;99152.78;;;6.61;100.00
4022;BME280;2025;48.260;16.432;2024-03-02T08:40:41;99159.81;;;6.61;100.00
4022;BME280;2025;48.260;16.432;2024-03-02T08:43:08;99154.59;;;6.61;100.00
4022;BME280;2025;48.260;16.432;2024-03-02T08:45:34;99153.97;;;6.67;100.00
4022;BME280;2025;48.260;16.432;2024-03-02T08:48:01;99154.97;;;6.82;100.00
4022;BME280;2025;48.260;16.432;2024-03-02T08:50:28;99151.22;;;6.85;100.00
4022;BME280;2025;48.260;16.432;2024-03-02T08:52:55;99152.88;;;6.86;100.00
4022;BME280;2025;48.260;16.432;2024-03-02T08:55:24;99157.13;;;6.87;100.00
4022;BME280;2025;48.260;16.432;2024-03-02T08:57:51;99154.84;;;6.92;100.00
4022;BME280;2025;48.260;16.432;2024-03-02T09:00:19;99157.84;;;7.13;100.00
4022;BME280;2025;48.260;16.432;2024-03-02T09:02:46;99153.72;;;7.03;100.00
4022;BME280;2025;48.260;16.432;2024-03-02T09:05:13;99143.91;;;7.13;100.00
4022;BME280;2025;48.260;16.432;2024-03-02T09:07:40;99150.09;;;7.04;100.00
4022;BME280;2025;48.260;16.432;2024-03-02T09:10:08;99150.00;;;7.13;100.00
4022;BME280;2025;48.260;16.432;2024-03-02T09:12:37;99152.09;;;7.10;100.00
4022;BME280;2025;48.260;16.432;2024-03-02T09:15:05;99149.00;;;7.23;100.00
4022;BME280;2025;48.260;16.432;2024-03-02T09:17:33;99142.44;;;7.27;100.00
4022;BME280;2025;48.260;16.432;2024-03-02T09:20:00;99154.56;;;7.20;100.00
4022;BME280;2025;48.260;16.432;2024-03-02T09:22:29;99148.34;;;7.21;100.00
4022;BME280;2025;48.260;16.432;2024-03-02T09:24:57;99149.34;;;7.52;100.00
4022;BME280;2025;48.260;16.432;2024-03-02T09:27:25;99151.78;;;7.54;100.00
4022;BME280;2025;48.260;16.432;2024-03-02T09:29:53;99153.75;;;7.52;100.00
4022;BME280;2025;48.260;16.432;2024-03-02T09:32:20;99144.56;;;7.64;100.00
4022;BME280;2025;48.260;16.432;2024-03-02T09:34:47;99141.63;;;7.84;100.00
4022;BME280;2025;48.260;16.432;2024-03-02T09:37:15;99142.50;;;8.23;100.00
4022;BME280;2025;48.260;16.432;2024-03-02T09:39:43;99142.97;;;8.35;100.00
4022;BME280;2025;48.260;16.432;2024-03-02T09:42:11;99135.91;;;8.36;100.00
4022;BME280;2025;48.260;16.432;2024-03-02T09:44:39;99131.75;;;8.58;100.00
4022;BME280;2025;48.260;16.432;2024-03-02T09:47:08;99130.50;;;8.77;100.00
4022;BME280;2025;48.260;16.432;2024-03-02T09:49:35;99130.66;;;8.75;100.00
4022;BME280;2025;48.260;16.432;2024-03-02T09:52:03;99130.22;;;8.95;100.00
4022;BME280;2025;48.260;16.432;2024-03-02T09:54:31;99130.81;;;9.05;100.00
4022;BME280;2025;48.260;16.432;2024-03-02T09:56:58;99119.19;;;9.22;100.00
4022;BME280;2025;48.260;16.432;2024-03-02T09:59:27;99117.38;;;9.23;100.00
4022;BME280;2025;48.260;16.432;2024-03-02T10:01:59;99109.66;;;9.44;100.00
4022;BME280;2025;48.260;16.432;2024-03-02T10:04:28;99111.44;;;9.44;100.00
4022;BME280;2025;48.260;16.432;2024-03-02T10:07:15;99106.25;;;9.74;100.00
4022;BME280;2025;48.260;16.432;2024-03-02T10:09:44;99112.53;;;9.87;100.00
4022;BME280;2025;48.260;16.432;2024-03-02T10:12:12;99118.72;;;9.80;100.00
4022;BME280;2025;48.260;16.432;2024-03-02T10:14:41;99114.25;;;9.95;100.00
4022;BME280;2025;48.260;16.432;2024-03-02T10:17:09;99113.53;;;10.01;98.89
4022;BME280;2025;48.260;16.432;2024-03-02T10:19:38;99112.25;;;9.97;99.28
4022;BME280;2025;48.260;16.432;2024-03-02T10:22:08;99119.72;;;10.08;98.67
4022;BME280;2025;48.260;16.432;2024-03-02T10:24:37;99114.91;;;9.82;99.88
4022;BME280;2025;48.260;16.432;2024-03-02T10:27:08;99111.28;;;10.13;99.02
4022;BME280;2025;48.260;16.432;2024-03-02T10:29:39;99107.19;;;10.10;98.75
4022;BME280;2025;48.260;16.432;2024-03-02T10:32:09;99108.28;;;10.16;98.47
4022;BME280;2025;48.260;16.432;2024-03-02T10:34:39;99112.28;;;10.12;98.15
4022;BME280;2025;48.260;16.432;2024-03-02T10:37:07;99103.47;;;10.20;98.19
4022;BME280;2025;48.260;16.432;2024-03-02T10:39:35;99107.28;;;10.17;98.72
4022;BME280;2025;48.260;16.432;2024-03-02T10:42:03;99107.13;;;10.19;99.46
4022;BME280;2025;48.260;16.432;2024-03-02T10:44:31;99113.44;;;10.24;99.48
4022;BME280;2025;48.260;16.432;2024-03-02T10:47:00;99105.47;;;10.18;98.72
4022;BME280;2025;48.260;16.432;2024-03-02T10:49:29;99114.16;;;10.18;98.58
4022;BME280;2025;48.260;16.432;2024-03-02T10:51:58;99111.72;;;10.02;99.31
4022;BME280;2025;48.260;16.432;2024-03-02T10:54:26;99107.66;;;9.99;99.86
4022;BME280;2025;48.260;16.432;2024-03-02T10:56:57;99103.13;;;9.93;100.00
4022;BME280;2025;48.260;16.432;2024-03-02T10:59:28;99099.13;;;9.97;100.00
4022;BME280;2025;48.260;16.432;2024-03-02T11:01:57;99107.31;;;10.02;100.00
4022;BME280;2025;48.260;16.432;2024-03-02T11:04:26;99100.28;;;9.95;100.00
4022;BME280;2025;48.260;16.432;2024-03-02T11:07:00;99102.75;;;9.96;100.00
4022;BME280;2025;48.260;16.432;2024-03-02T11:09:29;99104.09;;;9.92;100.00
4022;BME280;2025;48.260;16.432;2024-03-02T11:12:02;99101.66;;;9.90;100.00
4022;BME280;2025;48.260;16.432;2024-03-02T11:14:31;99099.38;;;9.87;100.00
4022;BME280;2025;48.260;16.432;2024-03-02T11:17:00;99095.84;;;9.95;100.00
4022;BME280;2025;48.260;16.432;2024-03-02T11:19:29;99100.94;;;9.97;99.82
4022;BME280;2025;48.260;16.432;2024-03-02T11:21:57;99095.31;;;10.00;98.62
4022;BME280;2025;48.260;16.432;2024-03-02T11:24:31;99093.84;;;9.97;97.82
4022;BME280;2025;48.260;16.432;2024-03-02T11:27:01;99095.84;;;9.95;98.15
4022;BME280;2025;48.260;16.432;2024-03-02T11:29:47;99098.03;;;9.91;98.08
4022;BME280;2025;48.260;16.432;2024-03-02T11:32:20;99097.56;;;9.88;98.36
4022;BME280;2025;48.260;16.432;2024-03-02T11:34:49;99097.66;;;9.95;98.16
4022;BME280;2025;48.260;16.432;2024-03-02T11:37:17;99102.28;;;9.92;97.91
4022;BME280;2025;48.260;16.432;2024-03-02T11:39:49;99101.56;;;9.84;99.67
4022;BME280;2025;48.260;16.432;2024-03-02T11:42:17;99104.22;;;9.84;98.37
4022;BME280;2025;48.260;16.432;2024-03-02T11:44:46;99104.16;;;9.69;97.33
4022;BME280;2025;48.260;16.432;2024-03-02T11:47:14;99101.25;;;9.64;97.68
4022;BME280;2025;48.260;16.432;2024-03-02T11:49:43;99101.91;;;9.81;96.97
4022;BME280;2025;48.260;16.432;2024-03-02T11:52:11;99101.22;;;9.87;97.55
4022;BME280;2025;48.260;16.432;2024-03-02T11:54:40;99105.28;;;10.04;95.75
4022;BME280;2025;48.260;16.432;2024-03-02T11:57:14;99104.56;;;10.10;94.70
4022;BME280;2025;48.260;16.432;2024-03-02T11:59:41;99096.03;;;10.08;94.58
4022;BME280;2025;48.260;16.432;2024-03-02T12:02:14;99101.84;;;10.19;94.03
4022;BME280;2025;48.260;16.432;2024-03-02T12:04:42;99095.13;;;10.16;94.02
4022;BME280;2025;48.260;16.432;2024-03-02T12:07:11;99090.22;;;10.13;94.11
4022;BME280;2025;48.260;16.432;2024-03-02T12:09:38;99092.41;;;10.39;93.40
4022;BME280;2025;48.260;16.432;2024-03-02T12:12:06;99084.34;;;10.41;92.98
4022;BME280;2025;48.260;16.432;2024-03-02T12:14:36;99089.03;;;10.45;91.52
4022;BME280;2025;48.260;16.432;2024-03-02T12:17:04;99089.41;;;10.42;91.76
4022;BME280;2025;48.260;16.432;2024-03-02T12:19:32;99084.78;;;10.44;92.16
4022;BME280;2025;48.260;16.432;2024-03-02T12:21:59;99087.69;;;10.34;92.01
4022;BME280;2025;48.260;16.432;2024-03-02T12:24:28;99090.41;;;10.41;92.34
4022;BME280;2025;48.260;16.432;2024-03-02T12:26:55;99095.94;;;10.46;91.85
4022;BME280;2025;48.260;16.432;2024-03-02T12:29:23;99092.78;;;10.36;91.67
4022;BME280;2025;48.260;16.432;2024-03-02T12:31:52;99095.25;;;10.38;91.93
4022;BME280;2025;48.260;16.432;2024-03-02T12:34:20;99099.41;;;10.47;92.12
4022;BME280;2025;48.260;16.432;2024-03-02T12:36:48;99096.44;;;10.35;91.01
4022;BME280;2025;48.260;16.432;2024-03-02T12:39:18;99086.78;;;10.42;90.87
4022;BME280;2025;48.260;16.432;2024-03-02T12:41:47;99092.13;;;10.49;90.36
4022;BME280;2025;48.260;16.432;2024-03-02T12:44:16;99085.94;;;10.57;91.24
4022;BME280;2025;48.260;16.432;2024-03-02T12:46:44;99090.44;;;10.63;89.26
4022;BME280;2025;48.260;16.432;2024-03-02T12:49:13;99080.13;;;10.61;89.30
4022;BME280;2025;48.260;16.432;2024-03-02T12:51:42;99088.34;;;10.73;88.37
4022;BME280;2025;48.260;16.432;2024-03-02T12:54:10;99082.22;;;10.87;87.80
4022;BME280;2025;48.260;16.432;2024-03-02T12:56:38;99078.44;;;10.96;86.95
4022;BME280;2025;48.260;16.432;2024-03-02T12:59:05;99075.09;;;11.09;86.52
4022;BME280;2025;48.260;16.432;2024-03-02T13:01:32;99079.22;;;11.12;85.62
4022;BME280;2025;48.260;16.432;2024-03-02T13:04:00;99083.13;;;11.23;85.42
4022;BME280;2025;48.260;16.432;2024-03-02T13:06:28;99078.78;;;11.36;84.96
4022;BME280;2025;48.260;16.432;2024-03-02T13:08:55;99074.00;;;11.47;84.50
4022;BME280;2025;48.260;16.432;2024-03-02T13:11:23;99068.31;;;11.71;83.19
4022;BME280;2025;48.260;16.432;2024-03-02T13:13:51;99075.47;;;11.56;83.16
4022;BME280;2025;48.260;16.432;2024-03-02T13:16:18;99066.59;;;11.57;82.95
4022;BME280;2025;48.260;16.432;2024-03-02T13:18:46;99072.16;;;11.41;83.53